Hlavní strana
METAR-TAF:

METAR-TAF

Letiště :

Sveg, Švédsko

zeměpisná šířka: 62-02-52N, zeměpisná délka: 014-25-22E, výška: 359 m

Aktuální stav počasí

Zpráva byla vytvořena před 40 minutami, v 15:50 UTC
Jižní vítr 7 kt, proměnlivý mezi jihovýchodním a jihojihozápadním
Teplota 5°C
Vlhkost vzduchu 45%
Tlak 1017 hPa
Viditelnost 10 km a více
Skoro jasno ve výšce 7200 ft
Polojasno ve výšce 12000 ft

METAR: ESND 221550Z 18007KT 140V210 9999 FEW072 SCT120 05/M06 Q1017

Čas: 17:30 (16:30 UTC)


TAF: chybějící

Stav a předpovědi počasí z více než 4 000 letišť (zprávy METAR a TAF).

Červené a žluté tečky na mapě představují dostupné meteorologické stanice.

Když kurzor umístíte na tečku, zobrazí se název stanice.

Pak kliknutím zobrazíte stav a předpověď počasí.

Chcete-li změnit mapu, kliknutím na zelené tlačítko se znaménkem +mapu přiblížíte, kliknutím na zelené tlačítko se znaménkem – mapu oddálíte a kliknutím na zelené šipky přejdete na sousední mapy.


METAR-TAF: